createdAt,value
2023-01-11T00:01:10.878Z,12.50
2023-01-11T00:03:38.637Z,13.50
2023-01-11T00:06:08.215Z,12.60
2023-01-11T00:08:36.447Z,13.20
2023-01-11T00:11:05.130Z,13.70
2023-01-11T00:13:33.457Z,14.70
2023-01-11T00:16:07.093Z,13.10
2023-01-11T00:18:36.789Z,13.10
2023-01-11T00:21:08.796Z,12.30
2023-01-11T00:23:38.030Z,13.20
2023-01-11T00:26:10.138Z,15.10
2023-01-11T00:28:37.898Z,13.80
2023-01-11T00:31:05.952Z,14.90
2023-01-11T00:33:34.069Z,15.20
2023-01-11T00:36:02.026Z,12.90
2023-01-11T00:38:46.744Z,12.20
2023-01-11T00:41:35.159Z,11.30
2023-01-11T00:44:23.814Z,11.90
2023-01-11T00:47:10.430Z,12.90
2023-01-11T00:49:38.552Z,12.60
2023-01-11T00:52:09.173Z,13.80
2023-01-11T00:54:41.906Z,11.50
2023-01-11T00:57:09.930Z,11.20
2023-01-11T00:59:41.363Z,11.60
2023-01-11T01:02:11.084Z,11.40
2023-01-11T01:04:40.418Z,12.80
2023-01-11T01:07:08.924Z,12.80
2023-01-11T01:09:36.578Z,13.80
2023-01-11T01:12:06.902Z,14.80
2023-01-11T01:14:35.775Z,14.50
2023-01-11T01:17:07.997Z,13.90
2023-01-11T01:19:38.875Z,15.00
2023-01-11T01:22:07.308Z,14.80
2023-01-11T01:24:35.256Z,15.60
2023-01-11T01:27:03.607Z,15.70
2023-01-11T01:29:31.322Z,17.60
2023-01-11T01:31:58.947Z,15.80
2023-01-11T01:34:26.761Z,16.40
2023-01-11T01:36:54.792Z,16.10
2023-01-11T01:39:22.546Z,16.60
2023-01-11T01:41:50.230Z,17.60
2023-01-11T01:44:59.190Z,16.00
2023-01-11T01:47:35.928Z,16.30
2023-01-11T01:50:15.957Z,16.40
2023-01-11T01:52:50.326Z,17.00
2023-01-11T01:55:34.999Z,14.70
2023-01-11T01:58:10.025Z,16.60
2023-01-11T02:00:46.214Z,15.00
2023-01-11T02:03:23.779Z,14.40
2023-01-11T02:05:54.136Z,13.50
2023-01-11T02:08:38.035Z,11.60
2023-01-11T02:11:27.950Z,12.10
2023-01-11T02:14:12.423Z,15.60
2023-01-11T02:16:40.755Z,12.80
2023-01-11T02:19:46.199Z,13.70
2023-01-11T02:23:05.044Z,13.90
2023-01-11T02:26:00.515Z,14.70
2023-01-11T02:28:50.210Z,13.70
2023-01-11T02:31:46.607Z,14.50
2023-01-11T02:34:50.202Z,15.00
2023-01-11T02:37:33.225Z,13.60
2023-01-11T02:40:17.645Z,14.00
2023-01-11T02:43:29.749Z,13.80
2023-01-11T02:46:16.829Z,13.50
2023-01-11T02:48:58.581Z,13.80
2023-01-11T02:51:47.467Z,15.10
2023-01-11T02:54:19.669Z,15.40
2023-01-11T02:56:51.660Z,13.10
2023-01-11T02:59:27.664Z,14.20
2023-01-11T03:01:55.825Z,14.60
2023-01-11T03:04:30.845Z,15.20
2023-01-11T03:07:19.879Z,15.10
2023-01-11T03:10:31.054Z,14.20
2023-01-11T03:13:23.865Z,15.10
2023-01-11T03:16:30.953Z,14.50
2023-01-11T03:19:13.185Z,15.00
2023-01-11T03:22:16.801Z,14.70
2023-01-11T03:25:02.550Z,14.40
2023-01-11T03:27:44.853Z,14.30
2023-01-11T03:30:28.442Z,15.00
2023-01-11T03:33:08.569Z,17.50
2023-01-11T03:36:00.838Z,16.30
2023-01-11T03:38:40.673Z,16.50
2023-01-11T03:41:17.243Z,15.70
2023-01-11T03:43:50.038Z,15.50
2023-01-11T03:46:48.973Z,14.70
2023-01-11T03:49:29.577Z,16.10
2023-01-11T03:52:00.583Z,15.90
2023-01-11T03:54:31.646Z,16.20
2023-01-11T03:57:22.037Z,15.90
2023-01-11T03:59:50.520Z,17.00
2023-01-11T04:02:35.114Z,16.40
2023-01-11T04:05:03.584Z,16.90
2023-01-11T04:07:31.614Z,16.80
2023-01-11T04:09:59.379Z,15.20
2023-01-11T04:12:27.873Z,16.20
2023-01-11T04:14:55.683Z,16.50
2023-01-11T04:17:23.752Z,15.50
2023-01-11T04:19:51.661Z,16.70
2023-01-11T04:22:19.364Z,16.50
2023-01-11T04:24:47.182Z,16.70
2023-01-11T04:27:14.847Z,17.20
2023-01-11T04:29:42.512Z,16.60
2023-01-11T04:32:10.374Z,14.70
2023-01-11T04:34:38.083Z,17.70
2023-01-11T04:37:05.778Z,20.40
2023-01-11T04:39:33.453Z,23.80
2023-01-11T04:42:19.709Z,22.20
2023-01-11T04:44:49.801Z,21.30
2023-01-11T04:47:20.820Z,20.30
2023-01-11T04:49:49.254Z,18.60
2023-01-11T04:52:20.507Z,20.30
2023-01-11T04:54:48.851Z,18.50
2023-01-11T04:57:17.701Z,18.00
2023-01-11T04:59:46.885Z,18.80
2023-01-11T05:02:15.994Z,18.50
2023-01-11T05:04:44.627Z,17.40
2023-01-11T05:07:12.531Z,17.60
2023-01-11T05:09:40.929Z,18.10
2023-01-11T05:12:08.813Z,18.50
2023-01-11T05:14:36.579Z,18.10
2023-01-11T05:17:04.292Z,17.00
2023-01-11T05:19:32.101Z,17.20
2023-01-11T05:21:59.734Z,19.10
2023-01-11T05:24:27.414Z,18.00
2023-01-11T05:26:55.153Z,18.60
2023-01-11T05:29:23.069Z,19.20
2023-01-11T05:31:50.851Z,21.30
2023-01-11T05:34:19.113Z,21.20
2023-01-11T05:36:46.827Z,25.20
2023-01-11T05:39:15.238Z,25.40
2023-01-11T05:41:43.090Z,24.40
2023-01-11T05:44:31.456Z,25.00
2023-01-11T05:46:59.691Z,23.30
2023-01-11T05:49:27.401Z,21.90
2023-01-11T05:51:55.385Z,27.80
2023-01-11T05:54:23.163Z,25.70
2023-01-11T05:56:50.949Z,23.90
2023-01-11T05:59:18.675Z,19.60
2023-01-11T06:01:46.714Z,18.60
2023-01-11T06:04:14.596Z,22.10
2023-01-11T06:06:42.299Z,21.30
2023-01-11T06:09:10.192Z,21.00
2023-01-11T06:11:37.899Z,19.90
2023-01-11T06:14:05.663Z,21.20
2023-01-11T06:16:33.446Z,20.50
2023-01-11T06:19:01.169Z,20.30
2023-01-11T06:21:28.964Z,22.50
2023-01-11T06:23:56.650Z,22.70
2023-01-11T06:26:24.468Z,23.70
2023-01-11T06:28:52.269Z,21.20
2023-01-11T06:31:20.256Z,19.80
2023-01-11T06:33:48.249Z,22.40
2023-01-11T06:36:23.982Z,22.40
2023-01-11T06:38:52.632Z,20.60
2023-01-11T06:41:20.328Z,19.30
2023-01-11T06:43:51.190Z,17.60
2023-01-11T06:46:19.627Z,15.40
2023-01-11T06:48:47.962Z,14.90
2023-01-11T06:51:16.809Z,15.20
2023-01-11T06:53:46.416Z,16.10
2023-01-11T06:56:20.564Z,10.50
2023-01-11T06:58:49.345Z,14.80
2023-01-11T07:01:18.935Z,15.60
2023-01-11T07:03:46.936Z,16.60
2023-01-11T07:06:14.749Z,14.40
2023-01-11T07:08:42.843Z,14.00
2023-01-11T07:11:10.789Z,11.30
2023-01-11T07:13:38.820Z,12.30
2023-01-11T07:16:06.947Z,12.70
2023-01-11T07:18:34.762Z,12.40
2023-01-11T07:21:02.608Z,8.90
2023-01-11T07:23:30.303Z,11.60
2023-01-11T07:25:58.009Z,12.80
2023-01-11T07:28:28.369Z,10.00
2023-01-11T07:30:59.102Z,14.00
2023-01-11T07:33:27.864Z,14.60
2023-01-11T07:35:55.661Z,13.70
2023-01-11T07:38:23.556Z,13.70
2023-01-11T07:40:51.435Z,15.20
2023-01-11T07:43:21.539Z,11.90
2023-01-11T07:45:52.662Z,9.20
2023-01-11T07:48:25.303Z,16.30
2023-01-11T07:50:54.112Z,17.00
2023-01-11T07:53:25.461Z,16.50
2023-01-11T07:55:55.857Z,13.50
2023-01-11T07:58:23.744Z,18.20
2023-01-11T08:00:51.550Z,16.50
2023-01-11T08:03:19.588Z,15.90
2023-01-11T08:05:52.401Z,18.20
2023-01-11T08:08:21.062Z,20.40
2023-01-11T08:11:09.209Z,19.20
2023-01-11T08:13:55.897Z,21.00
2023-01-11T08:16:23.683Z,16.90
2023-01-11T08:18:52.642Z,18.10
2023-01-11T08:21:21.464Z,16.40
2023-01-11T08:23:49.218Z,14.80
2023-01-11T08:26:18.245Z,20.70
2023-01-11T08:28:46.913Z,23.90
2023-01-11T08:31:14.645Z,22.10
2023-01-11T08:33:42.881Z,22.50
2023-01-11T08:36:13.464Z,21.50
2023-01-11T08:38:41.308Z,22.40
2023-01-11T08:41:12.338Z,18.90
2023-01-11T08:43:41.988Z,13.80
2023-01-11T08:46:10.684Z,26.10
2023-01-11T08:48:38.512Z,24.00
2023-01-11T08:51:06.284Z,20.80
2023-01-11T08:53:34.181Z,20.90
2023-01-11T08:56:01.960Z,15.90
2023-01-11T08:58:30.328Z,18.40
2023-01-11T09:01:03.903Z,15.20
2023-01-11T09:03:31.725Z,22.90
2023-01-11T09:05:59.712Z,24.60
2023-01-11T09:08:28.568Z,23.40
2023-01-11T09:10:56.738Z,22.00
2023-01-11T09:13:24.392Z,24.20
2023-01-11T09:15:57.552Z,22.00
2023-01-11T09:18:26.937Z,25.40
2023-01-11T09:20:54.881Z,20.10
2023-01-11T09:23:22.713Z,28.20
2023-01-11T09:25:50.480Z,26.20
2023-01-11T09:28:18.959Z,21.10
2023-01-11T09:30:46.687Z,18.40
2023-01-11T09:33:14.448Z,23.40
2023-01-11T09:35:42.893Z,19.70
2023-01-11T09:38:10.565Z,21.50
2023-01-11T09:41:11.977Z,23.20
2023-01-11T09:43:56.613Z,26.50
2023-01-11T09:46:27.540Z,24.40
2023-01-11T09:48:59.661Z,25.20
2023-01-11T09:51:35.450Z,28.10
2023-01-11T09:54:06.410Z,24.30
2023-01-11T09:56:46.407Z,24.10
2023-01-11T09:59:42.429Z,22.50
2023-01-11T10:02:35.809Z,21.70
2023-01-11T10:05:41.132Z,23.60
2023-01-11T10:18:22.777Z,21.60
2023-01-11T10:18:41.881Z,21.70
2023-01-11T10:21:34.500Z,19.00
2023-01-11T10:24:08.529Z,21.80
2023-01-11T10:26:42.338Z,17.60
2023-01-11T10:30:11.934Z,16.30
2023-01-11T10:32:54.254Z,17.70
2023-01-11T10:35:45.871Z,17.60
2023-01-11T10:38:46.688Z,12.30
2023-01-11T10:41:37.723Z,15.90
2023-01-11T10:44:08.370Z,16.70
2023-01-11T10:46:52.659Z,16.10
2023-01-11T10:50:00.883Z,15.60
2023-01-11T10:53:17.163Z,14.40
2023-01-11T10:56:21.699Z,15.00
2023-01-11T10:59:43.692Z,15.50
2023-01-11T11:02:56.050Z,11.20
2023-01-11T11:05:52.025Z,13.70
2023-01-11T11:08:34.781Z,12.20
2023-01-11T11:11:13.264Z,13.20
2023-01-11T11:13:59.448Z,15.20
2023-01-11T11:16:55.669Z,14.00
2023-01-11T11:19:32.142Z,13.70
2023-01-11T11:22:00.609Z,13.00
2023-01-11T11:24:40.999Z,11.40
2023-01-11T11:27:30.192Z,11.50
2023-01-11T11:29:58.154Z,13.00
2023-01-11T11:32:31.233Z,12.50
2023-01-11T11:34:59.154Z,11.10
2023-01-11T11:37:44.348Z,14.10
2023-01-11T11:40:38.295Z,14.60
2023-01-11T11:43:21.406Z,15.00
2023-01-11T11:46:06.198Z,14.30
2023-01-11T11:48:35.626Z,13.30
2023-01-11T11:51:07.618Z,13.80
2023-01-11T11:53:48.177Z,16.80
2023-01-11T11:56:26.110Z,13.30
2023-01-11T11:58:56.975Z,15.60
2023-01-11T12:01:27.097Z,11.80
2023-01-11T12:04:01.024Z,14.00
2023-01-11T12:06:30.805Z,17.00
2023-01-11T12:09:03.001Z,17.00
2023-01-11T12:11:35.797Z,18.30
2023-01-11T12:14:22.918Z,14.00
2023-01-11T12:16:50.679Z,16.30
2023-01-11T12:19:42.848Z,14.40
2023-01-11T12:22:16.166Z,15.30
2023-01-11T12:24:46.694Z,17.30
2023-01-11T12:27:54.931Z,14.50
2023-01-11T12:30:33.596Z,15.60
2023-01-11T12:33:25.554Z,18.40
2023-01-11T12:36:14.458Z,16.90
2023-01-11T12:38:53.703Z,17.70
2023-01-11T12:41:52.717Z,18.60
2023-01-11T12:45:26.969Z,12.90
2023-01-11T12:48:24.710Z,14.30
2023-01-11T12:51:18.277Z,12.80
2023-01-11T12:54:01.139Z,17.40
2023-01-11T12:56:43.960Z,14.30
2023-01-11T12:59:56.053Z,21.50
2023-01-11T13:03:09.427Z,17.90
2023-01-11T13:05:57.133Z,15.50
2023-01-11T13:08:56.220Z,17.40
2023-01-11T13:11:45.941Z,16.70
2023-01-11T13:14:44.663Z,16.80
2023-01-11T13:17:33.628Z,17.40
2023-01-11T13:20:23.280Z,19.90
2023-01-11T13:22:59.867Z,21.10
2023-01-11T13:25:33.736Z,17.40
2023-01-11T13:28:29.000Z,15.20
2023-01-11T13:30:59.631Z,16.00
2023-01-11T13:33:32.697Z,15.50
2023-01-11T13:36:22.910Z,12.80
2023-01-11T13:39:07.212Z,14.80
2023-01-11T13:41:51.848Z,15.50
2023-01-11T13:44:37.321Z,17.30
2023-01-11T13:47:16.129Z,12.00
2023-01-11T13:50:24.956Z,15.10
2023-01-11T13:53:09.871Z,15.90
2023-01-11T13:55:50.710Z,19.10
2023-01-11T13:58:42.127Z,15.30
2023-01-11T14:01:15.103Z,13.90
2023-01-11T14:04:01.458Z,15.70
2023-01-11T14:06:42.098Z,15.30
2023-01-11T14:09:27.952Z,10.50
2023-01-11T14:12:27.054Z,12.90
2023-01-11T14:15:23.355Z,13.00
2023-01-11T14:18:32.234Z,12.70
2023-01-11T14:21:12.062Z,11.50
2023-01-11T14:23:55.226Z,11.10
2023-01-11T14:27:05.944Z,12.10
2023-01-11T14:29:50.484Z,9.90
2023-01-11T14:32:45.705Z,10.90
2023-01-11T14:36:00.708Z,11.30
2023-01-11T14:39:06.250Z,11.80
2023-01-11T14:42:40.129Z,12.40
2023-01-11T14:46:12.195Z,9.00
2023-01-11T14:49:10.811Z,9.40
2023-01-11T14:51:44.738Z,10.60
2023-01-11T14:54:22.664Z,11.20
2023-01-11T14:57:02.916Z,9.10
2023-01-11T14:59:30.573Z,9.10
2023-01-11T15:02:04.599Z,9.00
2023-01-11T15:04:58.526Z,11.40
2023-01-11T15:07:29.111Z,13.40
2023-01-11T15:10:01.815Z,14.80
2023-01-11T15:12:39.309Z,12.00
2023-01-11T15:15:13.189Z,12.30
2023-01-11T15:18:00.951Z,10.20
2023-01-11T15:20:29.641Z,10.80
2023-01-11T15:23:02.267Z,10.30
2023-01-11T15:26:14.978Z,12.40
2023-01-11T15:28:50.247Z,10.90
2023-01-11T15:31:45.756Z,11.50
2023-01-11T15:34:26.664Z,10.90
2023-01-11T15:37:00.259Z,11.90
2023-01-11T15:39:58.681Z,16.00
2023-01-11T15:43:16.668Z,16.60
2023-01-11T15:46:29.712Z,14.10
2023-01-11T15:49:57.381Z,12.40
2023-01-11T15:52:50.801Z,16.00
2023-01-11T15:56:09.343Z,18.60
2023-01-11T15:59:27.193Z,13.80
2023-01-11T16:02:13.391Z,13.90
2023-01-11T16:04:51.676Z,11.90
2023-01-11T16:07:43.620Z,8.90
2023-01-11T16:10:49.042Z,9.80
2023-01-11T16:13:49.502Z,10.50
2023-01-11T16:16:39.244Z,12.80
2023-01-11T16:19:21.844Z,9.60
2023-01-11T16:21:55.724Z,10.20
2023-01-11T16:24:29.509Z,8.50
2023-01-11T16:27:02.000Z,11.80
2023-01-11T16:29:36.809Z,12.70
2023-01-11T16:32:19.007Z,11.20
2023-01-11T16:34:50.261Z,10.00
2023-01-11T16:37:31.264Z,12.20
2023-01-11T16:40:12.460Z,12.80
2023-01-11T16:42:51.405Z,12.10
2023-01-11T16:45:51.896Z,9.80
2023-01-11T16:48:29.633Z,12.20
2023-01-11T16:51:19.466Z,10.70
2023-01-11T16:53:58.039Z,10.60
2023-01-11T16:56:25.907Z,6.60
2023-01-11T16:59:34.573Z,10.10
2023-01-11T17:02:32.944Z,7.30
2023-01-11T17:05:00.889Z,9.80
2023-01-11T17:07:30.713Z,6.70
2023-01-11T17:10:18.742Z,10.80
2023-01-11T17:13:34.968Z,10.20
2023-01-11T17:16:10.270Z,10.70
2023-01-11T17:18:42.927Z,9.70
2023-01-11T17:21:40.934Z,10.50
2023-01-11T17:24:13.543Z,9.40
2023-01-11T17:26:49.529Z,10.60
2023-01-11T17:29:28.619Z,11.10
2023-01-11T17:31:59.480Z,10.40
2023-01-11T17:34:35.029Z,8.70
2023-01-11T17:37:12.226Z,7.50
2023-01-11T17:39:48.847Z,7.50
2023-01-11T17:42:36.465Z,7.60
2023-01-11T17:45:21.833Z,8.00
2023-01-11T17:47:55.019Z,6.70
2023-01-11T17:50:37.991Z,7.50
2023-01-11T17:53:21.904Z,6.20
2023-01-11T17:56:02.001Z,6.20
2023-01-11T17:58:38.246Z,7.30
2023-01-11T18:01:07.719Z,6.20
2023-01-11T18:04:01.741Z,4.70
2023-01-11T18:06:40.969Z,5.20
2023-01-11T18:09:33.986Z,5.60
2023-01-11T18:12:20.706Z,5.10
2023-01-11T18:14:59.990Z,4.90
2023-01-11T18:17:37.161Z,7.50
2023-01-11T18:20:11.025Z,6.70
2023-01-11T18:22:42.035Z,5.90
2023-01-11T18:25:26.050Z,6.00
2023-01-11T18:28:12.382Z,5.40
2023-01-11T18:30:48.199Z,4.40
2023-01-11T18:33:23.475Z,4.60
2023-01-11T18:35:55.626Z,5.30
2023-01-11T18:38:33.944Z,5.60
2023-01-11T18:41:27.410Z,6.70
2023-01-11T18:43:55.755Z,6.20
2023-01-11T18:46:23.625Z,5.80
2023-01-11T18:48:51.920Z,3.80
2023-01-11T18:51:28.892Z,5.80
2023-01-11T18:53:56.732Z,4.80
2023-01-11T18:56:24.382Z,4.40
2023-01-11T18:58:52.115Z,4.30
2023-01-11T19:01:20.105Z,5.00
2023-01-11T19:03:48.327Z,4.80
2023-01-11T19:06:19.354Z,3.20
2023-01-11T19:08:47.171Z,3.60
2023-01-11T19:11:16.450Z,4.20
2023-01-11T19:13:46.735Z,3.80
2023-01-11T19:16:15.245Z,3.80
2023-01-11T19:18:42.976Z,4.50
2023-01-11T19:21:13.206Z,4.10
2023-01-11T19:23:41.773Z,4.90
2023-01-11T19:26:09.482Z,4.50
2023-01-11T19:28:37.206Z,5.10
2023-01-11T19:31:09.002Z,4.10
2023-01-11T19:33:37.311Z,5.50
2023-01-11T19:36:09.849Z,3.20
2023-01-11T19:38:38.572Z,5.60
2023-01-11T19:41:10.464Z,3.70
2023-01-11T19:43:44.846Z,4.40
2023-01-11T19:46:19.588Z,4.10
2023-01-11T19:48:55.141Z,4.30
2023-01-11T19:51:22.825Z,4.70
2023-01-11T19:53:50.491Z,5.40
2023-01-11T19:56:18.164Z,4.50
2023-01-11T19:58:45.955Z,4.60
2023-01-11T20:01:14.296Z,5.20
2023-01-11T20:03:42.669Z,5.70
2023-01-11T20:06:11.305Z,4.00
2023-01-11T20:08:41.336Z,4.50
2023-01-11T20:11:13.115Z,4.30
2023-01-11T20:13:41.870Z,3.60
2023-01-11T20:16:15.224Z,3.40
2023-01-11T20:18:44.123Z,3.40
2023-01-11T20:21:13.623Z,2.30
2023-01-11T20:23:42.521Z,3.80
2023-01-11T20:26:17.699Z,3.40
2023-01-11T20:28:53.353Z,4.50
2023-01-11T20:31:27.955Z,4.40
2023-01-11T20:34:00.575Z,5.00
2023-01-11T20:36:28.988Z,4.90
2023-01-11T20:38:56.917Z,5.00
2023-01-11T20:41:46.073Z,4.40
2023-01-11T20:44:27.779Z,3.90
2023-01-11T20:46:56.644Z,3.50
2023-01-11T20:49:29.256Z,5.80
2023-01-11T20:51:58.890Z,5.70
2023-01-11T20:54:27.030Z,4.80
2023-01-11T20:56:57.817Z,4.20
2023-01-11T20:59:26.464Z,3.40
2023-01-11T21:01:54.312Z,3.50
2023-01-11T21:04:22.141Z,2.90
2023-01-11T21:06:50.047Z,3.40
2023-01-11T21:09:19.124Z,2.80
2023-01-11T21:11:53.765Z,2.60
2023-01-11T21:14:22.829Z,2.70
2023-01-11T21:16:50.811Z,3.40
2023-01-11T21:19:18.565Z,3.50
2023-01-11T21:21:48.407Z,3.60
2023-01-11T21:24:17.377Z,4.20
2023-01-11T21:26:45.973Z,3.90
2023-01-11T21:29:13.931Z,3.60
2023-01-11T21:31:42.269Z,2.20
2023-01-11T21:34:13.807Z,2.90
2023-01-11T21:36:43.671Z,3.20
2023-01-11T21:39:15.180Z,2.90
2023-01-11T21:41:55.931Z,3.00
2023-01-11T21:44:33.201Z,2.90
2023-01-11T21:47:04.457Z,3.20
2023-01-11T21:49:33.109Z,3.10
2023-01-11T21:52:00.900Z,3.70
2023-01-11T21:54:28.768Z,3.70
2023-01-11T21:56:56.719Z,3.90
2023-01-11T21:59:24.800Z,4.60
2023-01-11T22:01:52.872Z,3.40
2023-01-11T22:04:21.393Z,3.70
2023-01-11T22:06:55.284Z,3.10
2023-01-11T22:09:26.069Z,3.90
2023-01-11T22:11:55.544Z,3.20
2023-01-11T22:14:23.777Z,3.90
2023-01-11T22:16:52.951Z,3.50
2023-01-11T22:19:20.762Z,3.10
2023-01-11T22:21:48.839Z,3.30
2023-01-11T22:24:17.780Z,3.00
2023-01-11T22:26:45.547Z,2.90
2023-01-11T22:29:16.163Z,2.60
2023-01-11T22:31:52.516Z,3.20
2023-01-11T22:34:21.945Z,2.70
2023-01-11T22:36:50.166Z,3.00
2023-01-11T22:39:19.564Z,3.20
2023-01-11T22:41:49.677Z,2.70
2023-01-11T22:44:18.415Z,2.50
2023-01-11T22:46:46.647Z,3.20
2023-01-11T22:49:14.938Z,3.90
2023-01-11T22:51:44.433Z,3.70
2023-01-11T22:54:13.244Z,4.20
2023-01-11T22:56:41.230Z,3.70
2023-01-11T22:59:10.168Z,3.30
2023-01-11T23:01:41.243Z,4.10
2023-01-11T23:04:13.602Z,4.30
2023-01-11T23:06:42.755Z,3.80
2023-01-11T23:09:16.385Z,3.80
2023-01-11T23:12:03.849Z,3.30
2023-01-11T23:14:33.478Z,3.50
2023-01-11T23:17:08.648Z,3.80
2023-01-11T23:19:40.573Z,4.00
2023-01-11T23:22:09.751Z,3.80
2023-01-11T23:24:39.023Z,4.20
2023-01-11T23:27:06.832Z,3.60
2023-01-11T23:29:35.530Z,3.80
2023-01-11T23:32:03.313Z,4.10
2023-01-11T23:34:31.117Z,5.10
2023-01-11T23:36:58.903Z,5.10
2023-01-11T23:39:26.570Z,5.20
2023-01-11T23:42:12.982Z,5.60
2023-01-11T23:44:40.651Z,6.10
2023-01-11T23:47:29.637Z,5.40
2023-01-11T23:50:00.847Z,5.40
2023-01-11T23:52:31.995Z,5.10
2023-01-11T23:54:59.821Z,4.90
2023-01-11T23:57:27.654Z,4.30
2023-01-11T23:59:55.255Z,5.60
